sensor_id;sensor_type;location;lat;lon;timestamp;pressure;altitude;pressure_sealevel;temperature;humidity
55932;BME280;41837;55.700;37.984;2023-03-04T00:02:24;98441.81;;;-4.15;100.00
55932;BME280;41837;55.700;37.984;2023-03-04T00:04:49;98446.97;;;-4.21;100.00
55932;BME280;41837;55.700;37.984;2023-03-04T00:07:16;98440.13;;;-4.17;100.00
55932;BME280;41837;55.700;37.984;2023-03-04T00:09:44;98440.09;;;-4.14;100.00
55932;BME280;41837;55.700;37.984;2023-03-04T00:12:11;98423.94;;;-4.16;100.00
55932;BME280;41837;55.700;37.984;2023-03-04T00:14:37;98431.56;;;-4.08;100.00
55932;BME280;41837;55.700;37.984;2023-03-04T00:17:03;98424.84;;;-4.22;100.00
55932;BME280;41837;55.700;37.984;2023-03-04T00:19:30;98423.13;;;-4.20;100.00
55932;BME280;41837;55.700;37.984;2023-03-04T00:21:56;98423.09;;;-4.17;100.00
55932;BME280;41837;55.700;37.984;2023-03-04T00:24:22;98411.25;;;-4.24;100.00
55932;BME280;41837;55.700;37.984;2023-03-04T00:26:49;98415.53;;;-4.29;100.00
55932;BME280;41837;55.700;37.984;2023-03-04T00:29:16;98406.16;;;-4.28;100.00
55932;BME280;41837;55.700;37.984;2023-03-04T00:31:42;98412.09;;;-4.23;100.00
55932;BME280;41837;55.700;37.984;2023-03-04T00:34:08;98399.31;;;-4.25;100.00
55932;BME280;41837;55.700;37.984;2023-03-04T00:36:34;98402.78;;;-4.32;100.00
55932;BME280;41837;55.700;37.984;2023-03-04T00:39:00;98384.94;;;-4.37;100.00
55932;BME280;41837;55.700;37.984;2023-03-04T00:41:27;98403.59;;;-4.22;100.00
55932;BME280;41837;55.700;37.984;2023-03-04T00:43:54;98372.25;;;-4.49;100.00
55932;BME280;41837;55.700;37.984;2023-03-04T00:46:20;98390.03;;;-4.38;100.00
55932;BME280;41837;55.700;37.984;2023-03-04T00:48:46;98395.13;;;-4.37;100.00
55932;BME280;41837;55.700;37.984;2023-03-04T00:51:12;98381.56;;;-4.46;100.00
55932;BME280;41837;55.700;37.984;2023-03-04T00:53:38;98384.97;;;-4.44;100.00
55932;BME280;41837;55.700;37.984;2023-03-04T00:56:04;98384.94;;;-4.37;100.00
55932;BME280;41837;55.700;37.984;2023-03-04T00:58:31;98382.38;;;-4.37;100.00
55932;BME280;41837;55.700;37.984;2023-03-04T01:00:57;98368.00;;;-4.50;100.00
55932;BME280;41837;55.700;37.984;2023-03-04T01:03:24;98363.75;;;-4.48;100.00
55932;BME280;41837;55.700;37.984;2023-03-04T01:05:51;98373.91;;;-4.46;100.00
55932;BME280;41837;55.700;37.984;2023-03-04T01:08:17;98361.22;;;-4.53;100.00
55932;BME280;41837;55.700;37.984;2023-03-04T01:10:43;98345.94;;;-4.62;100.00
55932;BME280;41837;55.700;37.984;2023-03-04T01:13:10;98339.19;;;-4.68;100.00
55932;BME280;41837;55.700;37.984;2023-03-04T01:15:36;98341.72;;;-4.69;100.00
55932;BME280;41837;55.700;37.984;2023-03-04T01:18:04;98362.03;;;-4.47;100.00
55932;BME280;41837;55.700;37.984;2023-03-04T01:20:30;98361.22;;;-4.57;100.00
55932;BME280;41837;55.700;37.984;2023-03-04T01:22:56;98352.72;;;-4.56;100.00
55932;BME280;41837;55.700;37.984;2023-03-04T01:25:22;98358.66;;;-4.56;100.00
55932;BME280;41837;55.700;37.984;2023-03-04T01:27:49;98367.97;;;-4.47;100.00
55932;BME280;41837;55.700;37.984;2023-03-04T01:30:17;98366.31;;;-4.57;100.00
55932;BME280;41837;55.700;37.984;2023-03-04T01:32:44;98349.38;;;-4.71;100.00
55932;BME280;41837;55.700;37.984;2023-03-04T01:35:10;98357.84;;;-4.59;100.00
55932;BME280;41837;55.700;37.984;2023-03-04T01:37:36;98362.94;;;-4.58;100.00
55932;BME280;41837;55.700;37.984;2023-03-04T01:40:03;98347.66;;;-4.69;100.00
55932;BME280;41837;55.700;37.984;2023-03-04T01:42:32;98368.88;;;-4.53;100.00
55932;BME280;41837;55.700;37.984;2023-03-04T01:45:00;98354.47;;;-4.61;100.00
55932;BME280;41837;55.700;37.984;2023-03-04T01:47:30;98368.78;;;-4.39;100.00
55932;BME280;41837;55.700;37.984;2023-03-04T01:49:57;98367.06;;;-4.38;100.00
55932;BME280;41837;55.700;37.984;2023-03-04T01:52:26;98363.69;;;-4.43;100.00
55932;BME280;41837;55.700;37.984;2023-03-04T01:54:52;98363.69;;;-4.39;100.00
55932;BME280;41837;55.700;37.984;2023-03-04T01:57:24;98365.34;;;-4.35;100.00
55932;BME280;41837;55.700;37.984;2023-03-04T02:02:42;98369.69;;;-4.46;100.00
55932;BME280;41837;55.700;37.984;2023-03-04T02:05:08;98362.94;;;-4.56;100.00
55932;BME280;41837;55.700;37.984;2023-03-04T02:07:35;98360.34;;;-4.48;100.00
55932;BME280;41837;55.700;37.984;2023-03-04T02:10:02;98340.84;;;-4.59;100.00
55932;BME280;41837;55.700;37.984;2023-03-04T02:12:29;98342.53;;;-4.56;100.00
55932;BME280;41837;55.700;37.984;2023-03-04T02:14:55;98348.47;;;-4.54;100.00
55932;BME280;41837;55.700;37.984;2023-03-04T02:17:25;98347.63;;;-4.59;100.00
55932;BME280;41837;55.700;37.984;2023-03-04T02:20:02;98342.53;;;-4.61;100.00
55932;BME280;41837;55.700;37.984;2023-03-04T02:22:37;98342.56;;;-4.69;100.00
55932;BME280;41837;55.700;37.984;2023-03-04T02:25:19;98340.88;;;-4.65;100.00
55932;BME280;41837;55.700;37.984;2023-03-04T02:27:47;98335.78;;;-4.65;100.00
55932;BME280;41837;55.700;37.984;2023-03-04T02:30:20;98328.97;;;-4.71;100.00
55932;BME280;41837;55.700;37.984;2023-03-04T02:32:48;98316.25;;;-4.75;100.00
55932;BME280;41837;55.700;37.984;2023-03-04T02:35:20;98317.94;;;-4.65;100.00
55932;BME280;41837;55.700;37.984;2023-03-04T02:37:47;98306.91;;;-4.75;100.00
55932;BME280;41837;55.700;37.984;2023-03-04T02:40:18;98302.63;;;-4.65;100.00
55932;BME280;41837;55.700;37.984;2023-03-04T02:42:46;98289.97;;;-4.85;100.00
55932;BME280;41837;55.700;37.984;2023-03-04T02:45:48;98304.38;;;-4.76;100.00
55932;BME280;41837;55.700;37.984;2023-03-04T02:48:18;98306.03;;;-4.68;100.00
55932;BME280;41837;55.700;37.984;2023-03-04T02:50:47;98302.63;;;-4.68;100.00
55932;BME280;41837;55.700;37.984;2023-03-04T02:53:15;98294.19;;;-4.76;100.00
55932;BME280;41837;55.700;37.984;2023-03-04T02:55:42;98251.06;;;-5.21;100.00
55932;BME280;41837;55.700;37.984;2023-03-04T02:58:11;98295.09;;;-4.91;100.00
55932;BME280;41837;55.700;37.984;2023-03-04T03:00:38;98281.53;;;-4.96;100.00
55932;BME280;41837;55.700;37.984;2023-03-04T03:03:06;98284.97;;;-5.03;100.00
55932;BME280;41837;55.700;37.984;2023-03-04T03:05:35;98283.22;;;-4.94;100.00
55932;BME280;41837;55.700;37.984;2023-03-04T03:08:03;98283.25;;;-5.01;100.00
55932;BME280;41837;55.700;37.984;2023-03-04T03:10:30;98274.78;;;-5.10;100.00
55932;BME280;41837;55.700;37.984;2023-03-04T03:12:57;98265.47;;;-5.11;100.00
55932;BME280;41837;55.700;37.984;2023-03-04T03:15:24;98273.03;;;-5.01;100.00
55932;BME280;41837;55.700;37.984;2023-03-04T03:17:50;98254.41;;;-5.13;100.00
55932;BME280;41837;55.700;37.984;2023-03-04T03:20:17;98254.44;;;-5.16;100.00
55932;BME280;41837;55.700;37.984;2023-03-04T03:22:43;98246.75;;;-5.13;100.00
55932;BME280;41837;55.700;37.984;2023-03-04T03:25:11;98235.72;;;-5.16;100.00
55932;BME280;41837;55.700;37.984;2023-03-04T03:27:37;98265.38;;;-4.94;100.00
55932;BME280;41837;55.700;37.984;2023-03-04T03:30:05;98260.25;;;-4.91;100.00
55932;BME280;41837;55.700;37.984;2023-03-04T03:32:35;98247.53;;;-4.95;100.00
55932;BME280;41837;55.700;37.984;2023-03-04T03:35:01;98253.41;;;-4.78;100.00
55932;BME280;41837;55.700;37.984;2023-03-04T03:37:28;98250.03;;;-4.81;100.00
55932;BME280;41837;55.700;37.984;2023-03-04T03:39:54;98250.03;;;-4.81;100.00
55932;BME280;41837;55.700;37.984;2023-03-04T03:42:21;98254.28;;;-4.83;100.00
55932;BME280;41837;55.700;37.984;2023-03-04T03:44:47;98248.31;;;-4.85;100.00
55932;BME280;41837;55.700;37.984;2023-03-04T03:47:15;98251.75;;;-4.88;100.00
55932;BME280;41837;55.700;37.984;2023-03-04T03:49:41;98252.56;;;-4.80;100.00
55932;BME280;41837;55.700;37.984;2023-03-04T03:52:08;98254.19;;;-4.70;100.00
55932;BME280;41837;55.700;37.984;2023-03-04T03:54:34;98255.91;;;-4.72;100.00
55932;BME280;41837;55.700;37.984;2023-03-04T03:57:00;98248.31;;;-4.84;100.00
55932;BME280;41837;55.700;37.984;2023-03-04T03:59:26;98244.88;;;-4.75;100.00
55932;BME280;41837;55.700;37.984;2023-03-04T04:01:52;98234.66;;;-4.75;100.00
55932;BME280;41837;55.700;37.984;2023-03-04T04:04:19;98240.53;;;-4.59;100.00
55932;BME280;41837;55.700;37.984;2023-03-04T04:06:45;98235.44;;;-4.59;100.00
55932;BME280;41837;55.700;37.984;2023-03-04T04:09:11;98211.69;;;-4.68;100.00
55932;BME280;41837;55.700;37.984;2023-03-04T04:11:37;98220.13;;;-4.56;100.00
55932;BME280;41837;55.700;37.984;2023-03-04T04:14:04;98217.59;;;-4.61;100.00
55932;BME280;41837;55.700;37.984;2023-03-04T04:16:31;98222.66;;;-4.56;100.00
55932;BME280;41837;55.700;37.984;2023-03-04T04:18:57;98203.13;;;-4.60;100.00
55932;BME280;41837;55.700;37.984;2023-03-04T04:21:22;98188.72;;;-4.61;100.00
55932;BME280;41837;55.700;37.984;2023-03-04T04:23:49;98207.25;;;-4.41;100.00
55932;BME280;41837;55.700;37.984;2023-03-04T04:26:15;98203.88;;;-4.44;100.00
55932;BME280;41837;55.700;37.984;2023-03-04T04:28:41;98197.09;;;-4.47;100.00
55932;BME280;41837;55.700;37.984;2023-03-04T04:31:07;98202.13;;;-4.38;100.00
55932;BME280;41837;55.700;37.984;2023-03-04T04:33:34;98205.53;;;-4.37;100.00
55932;BME280;41837;55.700;37.984;2023-03-04T04:36:01;98204.63;;;-4.33;100.00
55932;BME280;41837;55.700;37.984;2023-03-04T04:38:28;98192.75;;;-4.36;100.00
55932;BME280;41837;55.700;37.984;2023-03-04T04:40:56;98203.78;;;-4.32;100.00
55932;BME280;41837;55.700;37.984;2023-03-04T04:43:24;98204.56;;;-4.24;100.00
55932;BME280;41837;55.700;37.984;2023-03-04T04:45:50;98201.13;;;-4.23;100.00
55932;BME280;41837;55.700;37.984;2023-03-04T04:48:17;98187.63;;;-4.31;100.00
55932;BME280;41837;55.700;37.984;2023-03-04T04:50:43;98193.47;;;-4.20;100.00
55932;BME280;41837;55.700;37.984;2023-03-04T04:53:11;98198.59;;;-4.24;100.00
55932;BME280;41837;55.700;37.984;2023-03-04T04:55:38;98197.75;;;-4.26;100.00
55932;BME280;41837;55.700;37.984;2023-03-04T04:58:05;98184.28;;;-4.38;100.00
55932;BME280;41837;55.700;37.984;2023-03-04T05:00:32;98193.44;;;-4.15;100.00
55932;BME280;41837;55.700;37.984;2023-03-04T05:02:58;98189.13;;;-4.10;100.00
55932;BME280;41837;55.700;37.984;2023-03-04T05:05:24;98187.44;;;-4.14;100.00
55932;BME280;41837;55.700;37.984;2023-03-04T05:07:50;98187.41;;;-4.09;100.00
55932;BME280;41837;55.700;37.984;2023-03-04T05:10:16;98189.03;;;-4.02;100.00
55932;BME280;41837;55.700;37.984;2023-03-04T05:12:43;98181.50;;;-4.16;100.00
55932;BME280;41837;55.700;37.984;2023-03-04T05:15:12;98192.47;;;-4.05;100.00
55932;BME280;41837;55.700;37.984;2023-03-04T05:17:38;98194.13;;;-4.01;100.00
55932;BME280;41837;55.700;37.984;2023-03-04T05:20:05;98175.47;;;-4.06;100.00
55932;BME280;41837;55.700;37.984;2023-03-04T05:22:31;98196.47;;;-3.79;100.00
55932;BME280;41837;55.700;37.984;2023-03-04T05:24:59;98179.41;;;-3.74;100.00
55932;BME280;41837;55.700;37.984;2023-03-04T05:27:25;98190.53;;;-3.80;100.00
55932;BME280;41837;55.700;37.984;2023-03-04T05:29:51;98181.28;;;-3.91;100.00
55932;BME280;41837;55.700;37.984;2023-03-04T05:32:17;98164.44;;;-4.08;100.00
55932;BME280;41837;55.700;37.984;2023-03-04T05:34:43;98188.06;;;-3.90;100.00
55932;BME280;41837;55.700;37.984;2023-03-04T05:37:09;98186.34;;;-3.87;100.00
55932;BME280;41837;55.700;37.984;2023-03-04T05:39:35;98154.09;;;-3.97;100.00
55932;BME280;41837;55.700;37.984;2023-03-04T05:42:01;98148.09;;;-3.91;100.00
55932;BME280;41837;55.700;37.984;2023-03-04T05:44:28;98148.75;;;-3.74;100.00
55932;BME280;41837;55.700;37.984;2023-03-04T05:46:54;98155.06;;;-3.33;100.00
55932;BME280;41837;55.700;37.984;2023-03-04T05:49:20;98148.41;;;-3.46;100.00
55932;BME280;41837;55.700;37.984;2023-03-04T05:51:46;98142.84;;;-3.11;100.00
55932;BME280;41837;55.700;37.984;2023-03-04T05:54:12;98123.41;;;-3.23;100.00
55932;BME280;41837;55.700;37.984;2023-03-04T05:56:38;98143.78;;;-3.16;100.00
55932;BME280;41837;55.700;37.984;2023-03-04T05:59:07;98131.25;;;-3.35;100.00
55932;BME280;41837;55.700;37.984;2023-03-04T06:01:33;98125.97;;;-3.23;100.00
55932;BME280;41837;55.700;37.984;2023-03-04T06:03:59;98133.13;;;-2.87;100.00
55932;BME280;41837;55.700;37.984;2023-03-04T06:06:25;98119.34;;;-2.78;100.00
55932;BME280;41837;55.700;37.984;2023-03-04T06:08:51;98110.84;;;-2.79;100.00
55932;BME280;41837;55.700;37.984;2023-03-04T06:11:18;98124.38;;;-2.72;100.00
55932;BME280;41837;55.700;37.984;2023-03-04T06:13:44;98119.13;;;-2.63;100.00
55932;BME280;41837;55.700;37.984;2023-03-04T06:16:10;98114.59;;;-2.47;100.00
55932;BME280;41837;55.700;37.984;2023-03-04T06:18:37;98104.31;;;-2.42;100.00
55932;BME280;41837;55.700;37.984;2023-03-04T06:21:05;98116.13;;;-2.37;100.00
55932;BME280;41837;55.700;37.984;2023-03-04T06:23:31;98107.66;;;-2.40;100.00
55932;BME280;41837;55.700;37.984;2023-03-04T06:25:58;98111.09;;;-2.41;100.00
55932;BME280;41837;55.700;37.984;2023-03-04T06:28:26;98109.75;;;-2.14;100.00
55932;BME280;41837;55.700;37.984;2023-03-04T06:30:53;98110.34;;;-2.00;100.00
55932;BME280;41837;55.700;37.984;2023-03-04T06:33:21;98097.53;;;-1.98;100.00
55932;BME280;41837;55.700;37.984;2023-03-04T06:35:47;98109.97;;;-2.25;100.00
55932;BME280;41837;55.700;37.984;2023-03-04T06:38:14;98091.97;;;-2.20;100.00
55932;BME280;41837;55.700;37.984;2023-03-04T06:40:40;98098.78;;;-1.76;100.00
55932;BME280;41837;55.700;37.984;2023-03-04T06:43:07;98083.31;;;-1.70;100.00
55932;BME280;41837;55.700;37.984;2023-03-04T06:45:32;98085.16;;;-1.78;100.00
55932;BME280;41837;55.700;37.984;2023-03-04T06:47:58;98079.91;;;-1.72;100.00
55932;BME280;41837;55.700;37.984;2023-03-04T06:50:24;98074.72;;;-1.28;100.00
55932;BME280;41837;55.700;37.984;2023-03-04T06:52:51;98074.84;;;-1.34;100.00
55932;BME280;41837;55.700;37.984;2023-03-04T06:55:17;98075.66;;;-0.95;100.00
55932;BME280;41837;55.700;37.984;2023-03-04T06:57:43;98055.13;;;-0.59;100.00
55932;BME280;41837;55.700;37.984;2023-03-04T07:00:09;98061.88;;;-1.26;100.00
55932;BME280;41837;55.700;37.984;2023-03-04T07:02:36;98035.38;;;-1.64;100.00
55932;BME280;41837;55.700;37.984;2023-03-04T07:05:02;98063.63;;;-1.69;100.00
55932;BME280;41837;55.700;37.984;2023-03-04T07:07:28;98044.56;;;-1.17;100.00
55932;BME280;41837;55.700;37.984;2023-03-04T07:09:55;98054.97;;;-1.63;100.00
55932;BME280;41837;55.700;37.984;2023-03-04T07:12:21;98065.16;;;-1.60;100.00
55932;BME280;41837;55.700;37.984;2023-03-04T07:14:47;98052.78;;;-1.41;100.00
55932;BME280;41837;55.700;37.984;2023-03-04T07:17:13;98059.06;;;-1.17;100.00
55932;BME280;41837;55.700;37.984;2023-03-04T07:19:39;98039.00;;;-0.98;100.00
55932;BME280;41837;55.700;37.984;2023-03-04T07:22:09;98042.84;;;-1.18;100.00
55932;BME280;41837;55.700;37.984;2023-03-04T07:24:35;98042.88;;;-1.19;100.00
55932;BME280;41837;55.700;37.984;2023-03-04T07:27:01;98042.72;;;-0.76;100.00
55932;BME280;41837;55.700;37.984;2023-03-04T07:29:27;98028.97;;;-0.40;100.00
55932;BME280;41837;55.700;37.984;2023-03-04T07:31:53;98027.09;;;-0.33;100.00
55932;BME280;41837;55.700;37.984;2023-03-04T07:34:20;98008.44;;;-0.09;100.00
55932;BME280;41837;55.700;37.984;2023-03-04T07:36:46;97991.81;;;1.41;100.00
55932;BME280;41837;55.700;37.984;2023-03-04T07:39:12;97973.00;;;1.14;95.69
55932;BME280;41837;55.700;37.984;2023-03-04T07:41:39;97982.50;;;0.85;96.42
55932;BME280;41837;55.700;37.984;2023-03-04T07:44:06;97990.91;;;0.90;97.49
55932;BME280;41837;55.700;37.984;2023-03-04T07:46:33;97989.75;;;0.72;95.77
55932;BME280;41837;55.700;37.984;2023-03-04T07:48:59;97974.75;;;0.30;96.42
55932;BME280;41837;55.700;37.984;2023-03-04T07:51:26;97981.16;;;1.76;92.65
55932;BME280;41837;55.700;37.984;2023-03-04T07:53:56;97985.28;;;1.80;89.50
55932;BME280;41837;55.700;37.984;2023-03-04T07:56:24;97971.97;;;1.68;87.03
55932;BME280;41837;55.700;37.984;2023-03-04T07:58:51;97986.59;;;1.43;91.44
55932;BME280;41837;55.700;37.984;2023-03-04T08:01:27;97968.44;;;1.71;86.36
55932;BME280;41837;55.700;37.984;2023-03-04T08:03:54;97977.44;;;1.83;85.67
55932;BME280;41837;55.700;37.984;2023-03-04T08:06:20;97950.78;;;2.53;82.17
55932;BME280;41837;55.700;37.984;2023-03-04T08:08:47;97971.69;;;1.76;80.89
55932;BME280;41837;55.700;37.984;2023-03-04T08:11:17;97944.06;;;1.33;85.45
55932;BME280;41837;55.700;37.984;2023-03-04T08:13:44;97933.00;;;0.50;89.84
55932;BME280;41837;55.700;37.984;2023-03-04T08:16:12;97946.03;;;0.72;93.45
55932;BME280;41837;55.700;37.984;2023-03-04T08:18:45;97957.78;;;1.06;89.89
55932;BME280;41837;55.700;37.984;2023-03-04T08:21:14;97955.91;;;1.11;87.49
55932;BME280;41837;55.700;37.984;2023-03-04T08:23:41;97909.56;;;0.86;88.04
55932;BME280;41837;55.700;37.984;2023-03-04T08:26:09;97956.00;;;1.08;90.24
55932;BME280;41837;55.700;37.984;2023-03-04T08:28:35;97932.38;;;-0.13;92.89
55932;BME280;41837;55.700;37.984;2023-03-04T08:31:02;97948.25;;;0.57;95.22
55932;BME280;41837;55.700;37.984;2023-03-04T08:33:30;97933.34;;;0.11;95.89
55932;BME280;41837;55.700;37.984;2023-03-04T08:35:56;97931.81;;;-0.24;98.76
55932;BME280;41837;55.700;37.984;2023-03-04T08:38:22;97930.56;;;0.19;97.41
55932;BME280;41837;55.700;37.984;2023-03-04T08:40:55;97939.22;;;0.45;96.83
55932;BME280;41837;55.700;37.984;2023-03-04T08:43:24;97938.81;;;0.29;96.69
55932;BME280;41837;55.700;37.984;2023-03-04T08:45:52;97933.94;;;0.49;96.85
55932;BME280;41837;55.700;37.984;2023-03-04T08:48:19;97938.13;;;-0.05;99.92
55932;BME280;41837;55.700;37.984;2023-03-04T08:50:49;97931.03;;;-0.26;100.00
55932;BME280;41837;55.700;37.984;2023-03-04T08:53:16;97936.25;;;0.01;100.00
55932;BME280;41837;55.700;37.984;2023-03-04T08:55:43;97910.53;;;0.29;100.00
55932;BME280;41837;55.700;37.984;2023-03-04T08:58:09;97928.00;;;0.99;99.46
55932;BME280;41837;55.700;37.984;2023-03-04T09:00:38;97918.69;;;0.70;96.75
55932;BME280;41837;55.700;37.984;2023-03-04T09:03:09;97921.25;;;0.43;96.68
55932;BME280;41837;55.700;37.984;2023-03-04T09:05:39;97916.91;;;-0.11;99.86
55932;BME280;41837;55.700;37.984;2023-03-04T09:08:05;97875.03;;;-0.13;100.00
55932;BME280;41837;55.700;37.984;2023-03-04T09:10:32;97903.72;;;-0.01;100.00
55932;BME280;41837;55.700;37.984;2023-03-04T09:12:58;97907.91;;;0.04;100.00
55932;BME280;41837;55.700;37.984;2023-03-04T09:15:24;97907.00;;;-0.24;100.00
55932;BME280;41837;55.700;37.984;2023-03-04T09:17:50;97871.56;;;-0.12;100.00
55932;BME280;41837;55.700;37.984;2023-03-04T09:20:16;97884.63;;;0.08;100.00
55932;BME280;41837;55.700;37.984;2023-03-04T09:22:43;97885.59;;;0.06;100.00
55932;BME280;41837;55.700;37.984;2023-03-04T09:25:10;97883.84;;;0.06;100.00
55932;BME280;41837;55.700;37.984;2023-03-04T09:27:39;97875.44;;;0.29;100.00
55932;BME280;41837;55.700;37.984;2023-03-04T09:30:09;97871.13;;;0.57;100.00
55932;BME280;41837;55.700;37.984;2023-03-04T09:32:38;97867.34;;;0.67;99.73
55932;BME280;41837;55.700;37.984;2023-03-04T09:35:09;97871.88;;;0.60;100.00
55932;BME280;41837;55.700;37.984;2023-03-04T09:37:36;97860.94;;;0.27;100.00
55932;BME280;41837;55.700;37.984;2023-03-04T09:40:03;97862.25;;;0.12;100.00
55932;BME280;41837;55.700;37.984;2023-03-04T09:42:42;97854.47;;;0.42;100.00
55932;BME280;41837;55.700;37.984;2023-03-04T09:45:14;97818.25;;;0.49;100.00
55932;BME280;41837;55.700;37.984;2023-03-04T09:47:45;97822.16;;;0.34;100.00
55932;BME280;41837;55.700;37.984;2023-03-04T09:50:17;97835.75;;;0.63;100.00
55932;BME280;41837;55.700;37.984;2023-03-04T09:52:47;97834.59;;;0.20;100.00
55932;BME280;41837;55.700;37.984;2023-03-04T09:55:21;97830.09;;;0.00;100.00
55932;BME280;41837;55.700;37.984;2023-03-04T09:58:39;97831.09;;;0.49;100.00
55932;BME280;41837;55.700;37.984;2023-03-04T10:01:25;97828.34;;;0.79;100.00
55932;BME280;41837;55.700;37.984;2023-03-04T10:04:30;97812.72;;;0.85;100.00
55932;BME280;41837;55.700;37.984;2023-03-04T10:07:00;97818.25;;;0.23;100.00
55932;BME280;41837;55.700;37.984;2023-03-04T10:12:10;97806.38;;;-0.08;100.00
55932;BME280;41837;55.700;37.984;2023-03-04T10:20:00;97793.25;;;-0.27;100.00
55932;BME280;41837;55.700;37.984;2023-03-04T10:22:36;97780.38;;;-0.26;100.00
55932;BME280;41837;55.700;37.984;2023-03-04T10:25:30;97778.97;;;-0.36;100.00
55932;BME280;41837;55.700;37.984;2023-03-04T10:27:58;97768.69;;;-0.36;100.00
55932;BME280;41837;55.700;37.984;2023-03-04T10:33:16;97765.38;;;-0.40;100.00
55932;BME280;41837;55.700;37.984;2023-03-04T10:35:48;97747.03;;;-0.27;100.00
55932;BME280;41837;55.700;37.984;2023-03-04T10:38:20;97750.16;;;-0.17;100.00
55932;BME280;41837;55.700;37.984;2023-03-04T10:40:46;97731.69;;;-0.29;100.00
55932;BME280;41837;55.700;37.984;2023-03-04T10:43:20;97746.97;;;-0.26;100.00
55932;BME280;41837;55.700;37.984;2023-03-04T10:45:47;97728.97;;;0.03;100.00
55932;BME280;41837;55.700;37.984;2023-03-04T10:48:19;97733.44;;;0.48;99.27
55932;BME280;41837;55.700;37.984;2023-03-04T10:50:47;97725.84;;;0.45;96.79
55932;BME280;41837;55.700;37.984;2023-03-04T10:53:31;97706.91;;;0.22;92.60
55932;BME280;41837;55.700;37.984;2023-03-04T10:55:59;97712.69;;;0.52;91.24
55932;BME280;41837;55.700;37.984;2023-03-04T10:58:25;97711.44;;;0.64;91.55
55932;BME280;41837;55.700;37.984;2023-03-04T11:01:00;97710.47;;;0.18;92.63
55932;BME280;41837;55.700;37.984;2023-03-04T11:06:05;97697.22;;;0.05;94.62
55932;BME280;41837;55.700;37.984;2023-03-04T11:08:31;97694.19;;;-0.08;97.05
55932;BME280;41837;55.700;37.984;2023-03-04T11:10:58;97695.19;;;-0.12;99.59
55932;BME280;41837;55.700;37.984;2023-03-04T11:13:25;97696.53;;;0.00;98.84
55932;BME280;41837;55.700;37.984;2023-03-04T11:15:55;97692.97;;;0.29;99.33
55932;BME280;41837;55.700;37.984;2023-03-04T11:18:42;97693.91;;;-0.25;100.00
55932;BME280;41837;55.700;37.984;2023-03-04T11:21:21;97692.22;;;-0.53;100.00
55932;BME280;41837;55.700;37.984;2023-03-04T11:24:29;97694.34;;;-0.66;100.00
55932;BME280;41837;55.700;37.984;2023-03-04T11:27:16;97689.63;;;-0.80;100.00
55932;BME280;41837;55.700;37.984;2023-03-04T11:30:02;97694.91;;;-0.84;100.00
55932;BME280;41837;55.700;37.984;2023-03-04T11:32:31;97688.47;;;-0.69;100.00
55932;BME280;41837;55.700;37.984;2023-03-04T11:40:58;97680.28;;;-0.82;100.00
55932;BME280;41837;55.700;37.984;2023-03-04T11:43:32;97670.19;;;-0.60;100.00
55932;BME280;41837;55.700;37.984;2023-03-04T11:54:01;97650.94;;;-0.73;100.00
55932;BME280;41837;55.700;37.984;2023-03-04T11:56:42;97657.03;;;-0.76;100.00
55932;BME280;41837;55.700;37.984;2023-03-04T12:10:05;97633.75;;;-1.26;100.00
55932;BME280;41837;55.700;37.984;2023-03-04T12:15:21;97639.88;;;-1.62;100.00
55932;BME280;41837;55.700;37.984;2023-03-04T12:18:08;97642.44;;;-1.62;100.00
55932;BME280;41837;55.700;37.984;2023-03-04T12:32:03;97626.19;;;-1.92;100.00
55932;BME280;41837;55.700;37.984;2023-03-04T12:34:41;97628.81;;;-1.95;100.00
55932;BME280;41837;55.700;37.984;2023-03-04T12:48:41;97615.00;;;-1.88;100.00
55932;BME280;41837;55.700;37.984;2023-03-04T12:54:02;97613.47;;;-1.95;100.00
55932;BME280;41837;55.700;37.984;2023-03-04T12:59:03;97606.13;;;-2.08;100.00
55932;BME280;41837;55.700;37.984;2023-03-04T13:01:40;97600.19;;;-2.10;100.00
55932;BME280;41837;55.700;37.984;2023-03-04T13:04:26;97606.59;;;-1.93;100.00
55932;BME280;41837;55.700;37.984;2023-03-04T13:07:19;97592.19;;;-1.97;100.00
55932;BME280;41837;55.700;37.984;2023-03-04T13:09:56;97574.47;;;-2.05;100.00
55932;BME280;41837;55.700;37.984;2023-03-04T13:12:24;97589.94;;;-2.08;100.00
55932;BME280;41837;55.700;37.984;2023-03-04T13:20:22;97543.91;;;-2.11;100.00
55932;BME280;41837;55.700;37.984;2023-03-04T13:23:00;97577.81;;;-2.01;100.00
55932;BME280;41837;55.700;37.984;2023-03-04T13:25:45;97571.88;;;-2.03;100.00
55932;BME280;41837;55.700;37.984;2023-03-04T13:28:26;97563.66;;;-2.15;100.00
55932;BME280;41837;55.700;37.984;2023-03-04T13:35:59;97549.38;;;-2.23;100.00
55932;BME280;41837;55.700;37.984;2023-03-04T13:43:27;97549.13;;;-2.14;100.00
55932;BME280;41837;55.700;37.984;2023-03-04T13:45:56;97541.31;;;-2.10;100.00
55932;BME280;41837;55.700;37.984;2023-03-04T13:48:29;97528.16;;;-2.27;100.00
55932;BME280;41837;55.700;37.984;2023-03-04T13:50:57;97533.06;;;-2.19;100.00
55932;BME280;41837;55.700;37.984;2023-03-04T13:53:32;97533.13;;;-2.22;100.00
55932;BME280;41837;55.700;37.984;2023-03-04T13:56:09;97516.81;;;-2.18;100.00
55932;BME280;41837;55.700;37.984;2023-03-04T13:58:38;97517.50;;;-2.12;100.00
55932;BME280;41837;55.700;37.984;2023-03-04T14:01:04;97507.84;;;-2.33;100.00
55932;BME280;41837;55.700;37.984;2023-03-04T14:03:33;97509.41;;;-2.29;100.00
55932;BME280;41837;55.700;37.984;2023-03-04T14:06:10;97507.47;;;-2.19;100.00
55932;BME280;41837;55.700;37.984;2023-03-04T14:08:40;97497.25;;;-2.21;100.00
55932;BME280;41837;55.700;37.984;2023-03-04T14:11:15;97503.47;;;-2.30;100.00
55932;BME280;41837;55.700;37.984;2023-03-04T14:13:44;97494.97;;;-2.30;100.00
55932;BME280;41837;55.700;37.984;2023-03-04T14:16:10;97495.84;;;-2.31;100.00
55932;BME280;41837;55.700;37.984;2023-03-04T14:18:37;97496.19;;;-2.44;100.00
55932;BME280;41837;55.700;37.984;2023-03-04T14:21:03;97488.19;;;-2.33;100.00